Time;durP1;ratioP1;P1;durP2;ratioP2;P2;SDS_P1;SDS_P2;PMS_P1;PMS_P2;Temp;Humidity;BMP_temperature;BMP_pressure;BME280_temperature;BME280_humidity;BME280_pressure;Samples;Min_cycle;Max_cycle;Signal;HPM_P1;HPM_P2
2022/10/02 00:00:41;;;;;;;0.40;0.30;;;15.50;99.90;;;;;;5053755;28;20044;-78
2022/10/02 00:03:20;;;;;;;4.25;0.40;;;15.50;99.90;;;;;;5053633;28;20033;-78
2022/10/02 00:05:50;;;;;;;0.60;0.28;;;15.40;99.90;;;;;;5053689;28;20059;-78
2022/10/02 00:08:40;;;;;;;2.90;0.20;;;15.40;99.90;;;;;;5053605;28;20047;-78
2022/10/02 00:11:05;;;;;;;0.45;0.25;;;15.40;99.90;;;;;;5053563;28;20048;-78
2022/10/02 00:13:55;;;;;;;0.50;0.30;;;15.30;99.90;;;;;;5049541;28;20037;-78
2022/10/02 00:16:35;;;;;;;0.63;0.30;;;15.30;99.90;;;;;;5051419;28;20492;-78
2022/10/02 00:19:01;;;;;;;0.38;0.30;;;15.20;99.90;;;;;;5053292;28;20106;-78
2022/10/02 00:21:45;;;;;;;0.40;0.13;;;15.30;99.90;;;;;;5052328;28;20492;-78
2022/10/02 00:24:16;;;;;;;0.30;0.30;;;15.20;99.90;;;;;;5052304;28;20041;-78
2022/10/02 00:26:46;;;;;;;;;;;15.10;99.90;;;;;;5052648;28;20436;-78
2022/10/02 00:29:46;;;;;;;8.27;2.00;;;14.80;99.90;;;;;;5053766;28;19966;-78
2022/10/02 00:32:12;;;;;;;4.05;2.42;;;14.60;99.90;;;;;;5053580;28;20044;-78
2022/10/02 00:35:16;;;;;;;4.53;2.50;;;14.60;99.90;;;;;;5052312;28;20377;-78
2022/10/02 00:37:53;;;;;;;3.15;1.80;;;14.40;99.90;;;;;;5055064;28;20040;-78
2022/10/02 00:40:43;;;;;;;2.72;1.70;;;14.40;99.90;;;;;;5057238;28;20037;-78
2022/10/02 00:43:10;;;;;;;2.05;1.35;;;14.40;99.90;;;;;;5055798;28;20041;-78
2022/10/02 00:46:13;;;;;;;2.00;1.40;;;14.50;99.90;;;;;;5055803;28;20060;-79
2022/10/02 00:49:00;;;;;;;2.00;1.38;;;14.50;99.90;;;;;;5057268;28;20033;-78
2022/10/02 00:51:39;;;;;;;7.72;3.85;;;14.50;99.90;;;;;;5057567;28;20040;-78
2022/10/02 00:54:18;;;;;;;2.13;1.10;;;14.50;99.90;;;;;;5057205;28;20381;-78
2022/10/02 00:57:08;;;;;;;1.13;1.00;;;14.60;99.90;;;;;;5052507;28;20072;-78
2022/10/02 00:59:39;;;;;;;4.72;0.80;;;14.70;99.90;;;;;;5034845;28;20085;-78
2022/10/02 01:02:13;;;;;;;1.52;0.90;;;14.70;99.90;;;;;;5035479;28;20037;-79
2022/10/02 01:04:40;;;;;;;0.90;0.60;;;14.70;99.90;;;;;;5036695;28;20045;-79
2022/10/02 01:07:09;;;;;;;1.23;0.50;;;14.80;99.90;;;;;;5051971;28;20532;-79
2022/10/02 01:09:36;;;;;;;2.20;0.70;;;14.80;99.90;;;;;;5036668;28;20047;-79
2022/10/02 01:12:02;;;;;;;0.65;0.50;;;14.80;99.90;;;;;;5035221;28;20038;-79
2022/10/02 01:14:36;;;;;;;1.40;0.65;;;14.70;99.90;;;;;;5035567;28;20072;-79
2022/10/02 01:17:04;;;;;;;5.13;1.73;;;14.50;99.90;;;;;;5038426;28;20044;-79
2022/10/02 01:19:38;;;;;;;3.47;1.75;;;14.60;99.90;;;;;;5056245;28;20080;-79
2022/10/02 01:22:16;;;;;;;1.48;0.68;;;14.60;99.90;;;;;;5056604;28;20120;-79
2022/10/02 01:25:03;;;;;;;1.10;0.80;;;14.50;99.90;;;;;;5055205;28;20052;-79
2022/10/02 01:27:29;;;;;;;0.88;0.70;;;14.50;99.90;;;;;;5055129;28;20048;-79
2022/10/02 01:30:00;;;;;;;1.17;0.57;;;14.50;99.90;;;;;;5055186;28;20083;-79
2022/10/02 01:32:31;;;;;;;1.05;0.50;;;14.70;99.90;;;;;;5056496;28;20048;-79
2022/10/02 01:34:57;;;;;;;0.60;0.50;;;14.80;99.90;;;;;;5056322;28;20512;-78
2022/10/02 01:37:27;;;;;;;1.67;0.85;;;14.60;99.90;;;;;;5054434;28;20120;-79
2022/10/02 01:39:55;;;;;;;1.10;0.80;;;14.50;99.90;;;;;;5054788;28;20044;-79
2022/10/02 01:42:20;;;;;;;2.05;0.90;;;14.50;99.90;;;;;;5056180;28;20040;-79
2022/10/02 01:44:47;;;;;;;3.40;0.68;;;14.60;99.90;;;;;;5056254;28;20047;-79
2022/10/02 01:47:25;;;;;;;1.88;1.00;;;14.60;99.90;;;;;;5054447;28;20400;-79
2022/10/02 01:50:02;;;;;;;1.50;0.98;;;14.50;99.90;;;;;;5055481;28;20389;-79
2022/10/02 01:52:54;;;;;;;0.85;0.40;;;14.60;99.90;;;;;;5055871;28;20496;-79
2022/10/02 01:56:08;;;;;;;3.17;0.52;;;14.60;99.90;;;;;;5054571;28;20041;-79
2022/10/02 01:58:52;;;;;;;0.88;0.55;;;14.70;99.90;;;;;;5018403;28;20471;-79
2022/10/02 02:01:23;;;;;;;4.28;0.60;;;14.80;99.90;;;;;;5055780;28;20548;-79
2022/10/02 02:04:20;;;;;;;1.08;0.65;;;14.70;99.90;;;;;;5053422;28;20080;-79
2022/10/02 02:06:54;;;;;;;3.28;0.70;;;14.70;99.90;;;;;;5052128;28;20048;-79
2022/10/02 02:09:38;;;;;;;1.42;0.40;;;14.60;99.90;;;;;;5055625;28;20107;-79
2022/10/02 02:12:16;;;;;;;2.45;0.52;;;14.70;99.90;;;;;;5054228;28;20033;-79
2022/10/02 02:14:49;;;;;;;0.68;0.40;;;14.70;99.90;;;;;;5055344;28;20060;-78
2022/10/02 02:17:46;;;;;;;0.30;0.20;;;14.70;99.90;;;;;;5054326;28;20033;-79
2022/10/02 02:20:19;;;;;;;0.75;0.30;;;14.80;99.90;;;;;;5054304;28;20049;-79
2022/10/02 02:22:50;;;;;;;0.35;0.30;;;14.80;99.90;;;;;;5055443;28;20048;-79
2022/10/02 02:25:16;;;;;;;;;;;14.70;99.90;;;;;;5054486;28;20072;-79
2022/10/02 02:27:48;;;;;;;0.35;0.35;;;14.70;99.90;;;;;;5055291;28;19920;-79
2022/10/02 02:30:15;;;;;;;1.40;0.45;;;14.70;99.90;;;;;;5053978;28;20043;-79
2022/10/02 02:33:00;;;;;;;0.47;0.40;;;14.70;99.90;;;;;;5053982;28;20061;-79
2022/10/02 02:35:38;;;;;;;1.63;0.85;;;14.70;99.90;;;;;;5055183;28;20040;-79
2022/10/02 02:38:44;;;;;;;2.08;1.02;;;14.70;99.90;;;;;;5054852;28;20045;-79
2022/10/02 02:41:20;;;;;;;1.58;0.80;;;14.70;99.90;;;;;;5053454;28;20101;-80
2022/10/02 02:44:05;;;;;;;1.33;0.70;;;14.70;99.90;;;;;;5055114;28;20032;-79
2022/10/02 02:47:04;;;;;;;0.70;0.60;;;14.70;99.90;;;;;;5055045;28;20118;-80
2022/10/02 02:49:42;;;;;;;4.93;2.33;;;14.70;99.90;;;;;;5053439;28;20102;-81
2022/10/02 02:52:15;;;;;;;4.80;2.60;;;14.80;99.90;;;;;;5053392;28;20526;-80
2022/10/02 02:54:57;;;;;;;2.58;1.70;;;14.80;99.90;;;;;;5054801;28;20032;-80
2022/10/02 02:57:51;;;;;;;4.43;2.25;;;14.70;99.90;;;;;;5054696;28;20520;-78
2022/10/02 03:00:18;;;;;;;1.92;0.90;;;14.70;99.90;;;;;;5053174;28;20130;-80
2022/10/02 03:02:45;;;;;;;2.70;0.55;;;14.70;99.90;;;;;;5054365;28;20120;-80
2022/10/02 03:05:18;;;;;;;1.33;0.50;;;14.70;99.90;;;;;;5056947;28;20092;-80
2022/10/02 03:07:57;;;;;;;0.30;0.30;;;14.80;99.90;;;;;;5057794;28;20096;-80
2022/10/02 03:10:38;;;;;;;0.50;0.30;;;15.00;99.90;;;;;;5054644;28;20055;-79
2022/10/02 03:13:22;;;;;;;0.80;0.30;;;15.00;99.90;;;;;;5055717;28;20116;-79
2022/10/02 03:16:17;;;;;;;0.20;0.20;;;15.00;99.90;;;;;;5055177;28;20560;-80
2022/10/02 03:18:43;;;;;;;2.33;0.22;;;14.80;99.90;;;;;;5053041;28;20553;-79
2022/10/02 03:21:21;;;;;;;0.20;0.20;;;14.80;99.90;;;;;;5054280;28;20037;-78
2022/10/02 03:24:04;;;;;;;0.35;0.20;;;14.80;99.90;;;;;;5052932;28;20033;-79
2022/10/02 03:26:44;;;;;;;0.20;0.20;;;14.90;99.90;;;;;;5052935;28;20036;-79
2022/10/02 03:29:21;;;;;;;0.10;0.10;;;14.90;99.90;;;;;;5054167;28;20404;-78
2022/10/02 03:31:48;;;;;;;0.60;0.10;;;15.00;99.90;;;;;;5054151;28;20048;-78
2022/10/02 03:34:15;;;;;;;1.30;0.38;;;15.00;99.90;;;;;;5054059;28;20036;-78
2022/10/02 03:36:41;;;;;;;0.17;0.10;;;14.90;99.90;;;;;;5052738;28;20045;-78
2022/10/02 03:39:08;;;;;;;0.10;0.10;;;14.90;99.90;;;;;;5054165;28;20060;-78
2022/10/02 03:41:35;;;;;;;0.47;0.30;;;14.90;99.90;;;;;;5054361;28;20132;-78
2022/10/02 03:44:01;;;;;;;5.72;1.02;;;14.80;99.90;;;;;;5053745;28;20128;-79
2022/10/02 03:46:27;;;;;;;0.93;0.52;;;14.80;99.90;;;;;;5054126;28;20090;-79
2022/10/02 03:48:55;;;;;;;0.98;0.60;;;14.80;99.90;;;;;;5052461;28;20033;-79
2022/10/02 03:51:22;;;;;;;0.93;0.60;;;14.80;99.90;;;;;;5053976;28;20091;-79
2022/10/02 03:53:48;;;;;;;1.30;0.80;;;14.70;99.90;;;;;;5054243;28;20048;-78
2022/10/02 03:56:28;;;;;;;17.38;0.98;;;14.60;99.90;;;;;;5055778;28;20036;-78
2022/10/02 03:58:58;;;;;;;1.73;1.30;;;14.60;99.90;;;;;;5057349;28;20056;-79
2022/10/02 04:01:28;;;;;;;1.90;1.15;;;14.60;99.90;;;;;;5055016;28;20055;-79
2022/10/02 04:04:03;;;;;;;0.85;0.70;;;14.60;99.90;;;;;;5054232;28;20041;-78
2022/10/02 04:06:42;;;;;;;0.70;0.60;;;14.50;99.90;;;;;;5054027;28;20040;-79
2022/10/02 04:09:26;;;;;;;0.77;0.50;;;14.50;99.90;;;;;;5055883;28;20029;-79
2022/10/02 04:12:29;;;;;;;0.30;0.30;;;14.50;99.90;;;;;;5056469;28;20044;-78
2022/10/02 04:15:20;;;;;;;0.52;0.30;;;14.60;99.90;;;;;;5060067;28;20488;-80
2022/10/02 04:18:03;;;;;;;0.28;0.28;;;14.70;99.90;;;;;;5060686;28;20041;-80
2022/10/02 04:20:48;;;;;;;0.40;0.25;;;14.70;99.90;;;;;;5059749;28;20052;-79
2022/10/02 04:23:14;;;;;;;0.40;0.30;;;14.60;99.90;;;;;;5058356;28;20047;-78
2022/10/02 04:25:45;;;;;;;1.45;0.90;;;14.60;99.90;;;;;;5059556;28;20457;-80
2022/10/02 04:28:19;;;;;;;6.65;1.02;;;14.50;99.90;;;;;;5057744;28;20048;-79
2022/10/02 04:30:45;;;;;;;0.70;0.57;;;14.50;99.90;;;;;;5060855;28;20056;-79
2022/10/02 04:33:17;;;;;;;1.13;0.60;;;14.50;99.90;;;;;;5059847;28;20044;-80
2022/10/02 04:35:48;;;;;;;1.35;0.77;;;14.60;99.90;;;;;;5057122;28;20489;-80
2022/10/02 04:38:29;;;;;;;1.27;0.90;;;14.60;99.90;;;;;;5055781;28;21121;-80
2022/10/02 04:41:11;;;;;;;1.08;0.63;;;14.60;99.90;;;;;;5058476;28;20120;-80
2022/10/02 04:43:55;;;;;;;1.30;0.60;;;14.70;99.90;;;;;;5060097;28;20052;-80
2022/10/02 04:46:39;;;;;;;0.63;0.20;;;14.70;99.90;;;;;;5059755;28;20044;-80
2022/10/02 04:49:31;;;;;;;0.30;0.30;;;14.70;99.90;;;;;;5057985;28;20069;-79
2022/10/02 04:52:08;;;;;;;1.88;0.30;;;14.80;99.90;;;;;;5056904;28;20048;-79
2022/10/02 04:54:43;;;;;;;0.95;0.40;;;14.90;99.90;;;;;;5057283;28;20060;-79
2022/10/02 04:57:56;;;;;;;0.95;0.60;;;14.90;99.90;;;;;;5055841;28;20052;-79
2022/10/02 05:00:24;;;;;;;0.25;0.20;;;14.70;99.90;;;;;;5055405;28;20056;-79
2022/10/02 05:03:19;;;;;;;2.17;0.20;;;14.80;99.90;;;;;;5049424;28;20579;-79
2022/10/02 05:06:19;;;;;;;0.20;0.10;;;14.90;99.90;;;;;;5043951;28;20067;-80
2022/10/02 05:08:56;;;;;;;0.20;0.20;;;15.00;99.90;;;;;;5056747;28;20448;-80
2022/10/02 05:11:55;;;;;;;0.20;0.13;;;15.00;99.90;;;;;;5056951;28;20037;-80
2022/10/02 05:14:43;;;;;;;0.20;0.13;;;15.00;99.90;;;;;;5056442;28;20033;-80
2022/10/02 05:17:39;;;;;;;0.20;0.20;;;15.00;99.90;;;;;;5055234;28;20395;-80
2022/10/02 05:20:42;;;;;;;0.40;0.10;;;15.10;99.90;;;;;;5056524;28;20053;-80
2022/10/02 05:23:30;;;;;;;0.47;0.30;;;15.00;99.90;;;;;;5055405;28;20064;-79
2022/10/02 05:26:06;;;;;;;0.65;0.15;;;15.00;99.90;;;;;;5056389;28;20041;-80
2022/10/02 05:28:57;;;;;;;0.32;0.10;;;15.00;99.90;;;;;;5056542;28;20515;-79
2022/10/02 05:31:25;;;;;;;0.17;0.10;;;15.00;99.90;;;;;;5056285;28;20037;-79
2022/10/02 05:34:06;;;;;;;0.95;0.10;;;15.00;99.90;;;;;;5054274;28;20128;-79
2022/10/02 05:36:52;;;;;;;0.52;0.38;;;15.00;99.90;;;;;;5055464;28;20037;-79
2022/10/02 05:39:26;;;;;;;0.30;0.20;;;15.00;99.90;;;;;;5055871;28;20052;-82
2022/10/02 05:42:07;;;;;;;3.60;0.10;;;14.90;99.90;;;;;;5071804;28;20116;-80
2022/10/02 05:44:38;;;;;;;0.30;0.15;;;14.90;99.90;;;;;;5056227;28;20045;-80
2022/10/02 05:47:18;;;;;;;0.10;0.10;;;14.80;99.90;;;;;;5054804;28;20044;-79
2022/10/02 05:49:57;;;;;;;0.20;0.20;;;14.80;99.90;;;;;;5056047;28;20036;-78
2022/10/02 05:52:41;;;;;;;0.00;0.00;;;14.80;99.90;;;;;;5056019;28;20445;-79
2022/10/02 05:55:16;;;;;;;0.10;0.10;;;14.80;99.90;;;;;;5054620;28;20400;-79
2022/10/02 05:57:56;;;;;;;0.10;0.10;;;14.90;99.90;;;;;;5056007;28;20439;-78
2022/10/02 06:01:06;;;;;;;0.20;0.15;;;14.80;99.90;;;;;;5055988;28;20041;-78
2022/10/02 06:03:38;;;;;;;0.10;0.10;;;14.90;99.90;;;;;;5013565;28;20131;-79
2022/10/02 06:06:12;;;;;;;0.30;0.30;;;14.80;99.90;;;;;;5013594;28;20033;-79
2022/10/02 06:08:51;;;;;;;0.75;0.60;;;14.70;99.90;;;;;;5037238;28;20040;-79
2022/10/02 06:11:51;;;;;;;69.05;2.55;;;14.60;99.90;;;;;;5055309;28;20049;-79
2022/10/02 06:14:26;;;;;;;1.80;1.50;;;14.60;99.90;;;;;;5054169;28;20126;-81
2022/10/02 06:17:27;;;;;;;0.70;0.52;;;14.60;99.90;;;;;;5051508;28;20045;-80
2022/10/02 06:19:59;;;;;;;1.05;0.45;;;14.70;99.90;;;;;;5038730;28;20088;-80
2022/10/02 06:22:30;;;;;;;0.65;0.40;;;14.70;99.90;;;;;;5032970;28;20065;-80
2022/10/02 06:25:00;;;;;;;0.22;0.22;;;14.70;99.90;;;;;;5033774;28;20037;-80
2022/10/02 06:27:45;;;;;;;0.10;0.10;;;14.60;99.90;;;;;;5032591;28;20091;-80
2022/10/02 06:30:17;;;;;;;0.55;0.20;;;14.60;99.90;;;;;;5031061;28;20030;-80
2022/10/02 06:32:50;;;;;;;0.38;0.22;;;14.60;99.90;;;;;;5031506;28;20037;-81
2022/10/02 06:35:37;;;;;;;0.13;0.10;;;14.50;99.90;;;;;;5047261;28;20119;-82
2022/10/02 06:38:15;;;;;;;0.85;0.40;;;14.50;99.90;;;;;;5052959;28;20051;-81
2022/10/02 06:41:00;;;;;;;0.85;0.38;;;14.50;99.90;;;;;;5052679;28;20087;-81
2022/10/02 06:43:53;;;;;;;1.05;0.43;;;14.50;99.90;;;;;;5052062;28;20040;-81
2022/10/02 06:46:45;;;;;;;0.30;0.20;;;14.50;99.90;;;;;;5053701;28;20049;-80
2022/10/02 06:49:50;;;;;;;0.88;0.40;;;14.60;99.90;;;;;;5052979;28;20126;-81
2022/10/02 06:52:25;;;;;;;1.00;0.40;;;14.70;99.90;;;;;;5052090;28;20040;-81
2022/10/02 06:55:20;;;;;;;0.75;0.43;;;14.60;99.90;;;;;;5050360;28;20523;-80
2022/10/02 06:58:03;;;;;;;0.80;0.52;;;14.60;99.90;;;;;;5046360;28;20431;-80
2022/10/02 07:00:35;;;;;;;0.82;0.50;;;14.70;99.90;;;;;;5053093;28;20048;-81
2022/10/02 07:03:30;;;;;;;0.40;0.40;;;14.70;99.90;;;;;;5050423;28;20059;-81
2022/10/02 07:06:26;;;;;;;0.60;0.40;;;14.80;99.90;;;;;;5051632;28;20094;-81
2022/10/02 07:09:22;;;;;;;1.77;0.40;;;14.80;99.90;;;;;;5052074;28;20500;-80
2022/10/02 07:12:03;;;;;;;3.70;0.40;;;14.90;99.90;;;;;;5051603;28;20037;-80
2022/10/02 07:15:03;;;;;;;0.70;0.30;;;15.00;99.90;;;;;;5050405;28;20111;-79
2022/10/02 07:17:35;;;;;;;1.65;0.20;;;15.10;99.90;;;;;;5026331;28;20094;-79
2022/10/02 07:20:38;;;;;;;0.30;0.10;;;15.10;99.90;;;;;;5051630;28;20048;-79
2022/10/02 07:23:15;;;;;;;0.57;0.10;;;15.20;99.90;;;;;;5049868;28;20640;-80
2022/10/02 07:26:05;;;;;;;1.00;0.38;;;15.30;99.90;;;;;;5050766;28;20103;-80
2022/10/02 07:29:03;;;;;;;;;;;15.30;99.90;;;;;;5050660;28;20037;-78
2022/10/02 07:31:50;;;;;;;0.40;0.10;;;15.30;99.90;;;;;;5016691;28;19916;-80
2022/10/02 07:34:42;;;;;;;0.20;0.17;;;15.40;99.90;;;;;;5051049;28;20032;-78
2022/10/02 07:37:22;;;;;;;0.22;0.22;;;15.50;99.90;;;;;;5049440;28;20048;-78
2022/10/02 07:40:30;;;;;;;0.40;0.35;;;15.30;99.90;;;;;;5049898;28;20412;-78
2022/10/02 07:43:26;;;;;;;0.20;0.20;;;15.20;99.90;;;;;;5051548;28;20111;-78
2022/10/02 07:46:29;;;;;;;0.28;0.20;;;15.30;99.90;;;;;;5050163;28;20051;-78
2022/10/02 07:49:13;;;;;;;0.98;0.25;;;15.80;99.90;;;;;;5052308;28;20444;-78
2022/10/02 07:51:49;;;;;;;12.60;7.32;;;16.40;99.90;;;;;;5049899;28;20037;-79
2022/10/02 07:54:24;;;;;;;7.03;4.80;;;16.60;99.90;;;;;;5050820;28;20051;-80
2022/10/02 07:56:54;;;;;;;7.47;5.25;;;17.30;99.90;;;;;;5049770;28;20440;-80
2022/10/02 07:59:21;;;;;;;5.40;4.07;;;17.70;99.90;;;;;;5050752;28;20106;-76
2022/10/02 08:01:49;;;;;;;2.78;1.50;;;17.90;99.90;;;;;;5050304;28;20120;-80
2022/10/02 08:04:28;;;;;;;3.55;2.17;;;18.10;99.90;;;;;;5052892;28;20507;-77
2022/10/02 08:07:03;;;;;;;1.33;0.90;;;18.40;99.90;;;;;;5051241;28;20064;-79
2022/10/02 08:09:51;;;;;;;2.50;1.13;;;18.60;99.90;;;;;;5050997;28;20427;-79
2022/10/02 08:12:36;;;;;;;3.72;1.60;;;18.70;99.90;;;;;;5051637;28;20041;-80
2022/10/02 08:15:04;;;;;;;1.95;0.95;;;19.10;99.90;;;;;;5049792;28;20448;-77
2022/10/02 08:17:54;;;;;;;7.97;3.92;;;18.90;99.90;;;;;;5049108;28;20044;-80
2022/10/02 08:20:38;;;;;;;11.05;4.45;;;19.30;99.90;;;;;;5050566;28;20080;-80
2022/10/02 08:23:51;;;;;;;12.00;5.40;;;19.30;99.90;;;;;;5050494;28;20036;-78
2022/10/02 08:26:22;;;;;;;2.70;0.95;;;19.60;99.90;;;;;;5048761;28;20120;-77
2022/10/02 08:29:04;;;;;;;2.25;1.00;;;19.70;99.90;;;;;;5051133;28;20112;-79
2022/10/02 08:31:32;;;;;;;2.83;1.70;;;20.00;99.90;;;;;;5051775;28;20132;-80
2022/10/02 08:34:15;;;;;;;14.15;6.22;;;20.10;99.90;;;;;;5052348;28;20048;-80
2022/10/02 08:37:08;;;;;;;47.08;16.85;;;20.30;99.90;;;;;;5052003;28;20048;-78
2022/10/02 08:39:41;;;;;;;16.95;6.43;;;20.10;99.90;;;;;;5052313;28;20066;-79
2022/10/02 08:42:35;;;;;;;17.88;6.80;;;20.20;99.90;;;;;;5050794;28;20059;-80
2022/10/02 08:45:49;;;;;;;8.98;3.17;;;20.20;99.90;;;;;;5051736;28;20040;-77
2022/10/02 08:48:54;;;;;;;1.52;0.57;;;20.20;99.90;;;;;;5039986;28;20391;-78
2022/10/02 08:51:52;;;;;;;15.13;5.63;;;20.20;99.90;;;;;;5049095;28;20048;-76
2022/10/02 08:54:27;;;;;;;18.23;4.95;;;20.50;99.90;;;;;;5049206;28;20045;-75
2022/10/02 08:57:24;;;;;;;16.52;5.95;;;20.40;99.90;;;;;;5045088;28;20040;-74
2022/10/02 09:00:19;;;;;;;6.25;2.45;;;19.80;99.90;;;;;;5053482;28;20079;-74
2022/10/02 09:03:23;;;;;;;1.45;0.63;;;19.70;99.90;;;;;;5053685;28;20049;-74
2022/10/02 09:06:08;;;;;;;0.68;0.40;;;19.50;99.90;;;;;;5052680;28;20519;-73
2022/10/02 09:08:50;;;;;;;0.40;0.20;;;19.20;99.90;;;;;;5050841;28;20175;-74
2022/10/02 09:11:56;;;;;;;4.32;0.20;;;19.00;99.90;;;;;;5050307;28;20044;-74
2022/10/02 09:14:49;;;;;;;0.25;0.20;;;18.80;99.90;;;;;;5049833;28;20208;-74
2022/10/02 09:17:35;;;;;;;0.40;0.20;;;19.00;99.90;;;;;;5050078;28;20037;-75
2022/10/02 09:20:03;;;;;;;0.10;0.10;;;19.50;99.90;;;;;;5051462;28;20048;-76
2022/10/02 09:22:32;;;;;;;0.30;0.20;;;19.60;99.90;;;;;;5053207;28;20033;-75
2022/10/02 09:25:20;;;;;;;0.10;0.10;;;20.10;99.90;;;;;;5052487;28;20052;-75
2022/10/02 09:28:11;;;;;;;0.40;0.20;;;20.10;99.90;;;;;;5051261;28;20037;-76
2022/10/02 09:30:48;;;;;;;0.00;0.00;;;20.10;99.90;;;;;;5066349;28;20088;-75
2022/10/02 09:33:19;;;;;;;0.20;0.20;;;20.40;99.90;;;;;;5052863;28;20037;-75
2022/10/02 09:36:02;;;;;;;0.10;0.10;;;20.60;99.90;;;;;;5053309;28;20532;-75
2022/10/02 09:39:00;;;;;;;0.15;0.10;;;20.70;99.90;;;;;;5053430;28;20052;-75
2022/10/02 09:42:07;;;;;;;0.20;0.10;;;20.40;99.90;;;;;;5051469;28;20033;-75
2022/10/02 09:44:57;;;;;;;0.25;0.25;;;20.60;99.90;;;;;;5014246;28;20167;-76
2022/10/02 09:47:52;;;;;;;0.10;0.10;;;20.80;99.90;;;;;;5066777;28;20083;-77
2022/10/02 09:50:47;;;;;;;0.10;0.10;;;20.70;99.90;;;;;;5033098;28;20485;-74
2022/10/02 09:53:26;;;;;;;2.47;0.22;;;20.80;99.90;;;;;;5040518;28;20032;-75
2022/10/02 09:56:24;;;;;;;0.20;0.15;;;21.00;99.90;;;;;;5050162;28;20037;-73
2022/10/02 09:59:09;;;;;;;0.20;0.10;;;21.00;99.90;;;;;;5064730;28;20500;-74
2022/10/02 10:02:06;;;;;;;0.10;0.10;;;21.40;99.90;;;;;;5049594;28;20040;-74
2022/10/02 10:04:49;;;;;;;0.75;0.25;;;21.00;99.90;;;;;;5050245;28;20131;-72
2022/10/02 10:07:23;;;;;;;0.32;0.20;;;21.40;99.90;;;;;;5065452;28;20127;-74
2022/10/02 10:10:18;;;;;;;0.32;0.20;;;20.50;99.90;;;;;;5064352;28;20037;-77
2022/10/02 10:13:11;;;;;;;0.47;0.30;;;20.80;99.90;;;;;;5050268;28;20045;-76
2022/10/02 10:16:13;;;;;;;0.30;0.20;;;20.80;99.90;;;;;;5049605;28;20124;-77
2022/10/02 10:19:03;;;;;;;0.40;0.30;;;21.10;99.90;;;;;;5050436;28;20049;-75
2022/10/02 10:21:45;;;;;;;0.52;0.38;;;21.30;99.90;;;;;;5043312;28;20488;-77
2022/10/02 10:24:38;;;;;;;8.48;4.47;;;21.40;99.90;;;;;;5059817;28;20504;-78
2022/10/02 10:27:28;;;;;;;0.80;0.30;;;21.50;99.90;;;;;;5051765;28;20047;-76
2022/10/02 10:30:03;;;;;;;1.33;0.10;;;21.60;99.90;;;;;;5051206;28;20124;-76
2022/10/02 10:33:07;;;;;;;1.95;0.10;;;21.80;99.90;;;;;;5066580;28;20087;-77
2022/10/02 10:35:47;;;;;;;1.00;0.35;;;21.40;99.90;;;;;;5050884;28;20037;-77
2022/10/02 10:38:41;;;;;;;0.55;0.30;;;21.20;99.90;;;;;;5068099;28;20451;-76
2022/10/02 10:41:28;;;;;;;1.80;0.50;;;21.30;99.90;;;;;;5070725;28;20155;-78
2022/10/02 10:44:36;;;;;;;0.57;0.38;;;21.40;99.90;;;;;;5067680;28;20067;-78
2022/10/02 10:47:08;;;;;;;1.20;0.43;;;21.30;99.90;;;;;;5022808;28;20041;-77
2022/10/02 10:49:45;;;;;;;0.20;0.20;;;21.10;99.90;;;;;;5048317;28;20037;-77
2022/10/02 10:52:28;;;;;;;0.20;0.20;;;21.40;99.90;;;;;;5070260;28;20036;-77
2022/10/02 10:55:24;;;;;;;1.48;0.40;;;21.70;99.90;;;;;;5058748;28;20073;-78
2022/10/02 10:58:05;;;;;;;0.65;0.40;;;21.60;99.90;;;;;;5048852;28;20159;-78
2022/10/02 11:00:54;;;;;;;0.70;0.25;;;21.50;99.90;;;;;;5052848;28;20616;-77
2022/10/02 11:03:57;;;;;;;0.38;0.20;;;21.40;99.90;;;;;;5050394;28;20116;-79
2022/10/02 11:06:55;;;;;;;0.43;0.32;;;21.50;99.90;;;;;;5050783;28;20041;-80
2022/10/02 11:09:51;;;;;;;0.35;0.20;;;21.70;99.90;;;;;;5051950;28;20061;-80
2022/10/02 11:12:56;;;;;;;0.85;0.30;;;21.00;99.90;;;;;;5068811;28;20048;-80
2022/10/02 11:15:28;;;;;;;0.82;0.38;;;21.30;99.90;;;;;;5052802;28;20028;-80
2022/10/02 11:18:17;;;;;;;2.88;0.30;;;21.30;99.90;;;;;;5054180;28;20481;-80
2022/10/02 11:21:10;;;;;;;1.15;0.47;;;21.60;99.90;;;;;;5067584;28;20516;-80
2022/10/02 11:23:57;;;;;;;0.45;0.20;;;21.60;99.90;;;;;;5068462;28;20064;-80
2022/10/02 11:26:46;;;;;;;0.20;0.10;;;21.60;99.90;;;;;;5051219;28;20049;-78
2022/10/02 11:29:29;;;;;;;0.57;0.50;;;21.70;99.90;;;;;;5033977;28;20128;-79
2022/10/02 11:32:32;;;;;;;2.40;0.32;;;21.40;99.90;;;;;;5051706;28;20132;-79
2022/10/02 11:35:31;;;;;;;5.00;2.17;;;21.00;99.90;;;;;;5052963;28;20033;-80
2022/10/02 11:38:18;;;;;;;0.70;0.60;;;21.20;99.90;;;;;;5052668;28;20484;-78
2022/10/02 11:40:59;;;;;;;0.88;0.60;;;21.60;99.90;;;;;;5048771;28;20045;-78
2022/10/02 11:43:33;;;;;;;0.32;0.20;;;21.80;99.90;;;;;;5050124;28;20047;-81
2022/10/02 11:46:11;;;;;;;1.70;0.80;;;21.60;99.90;;;;;;5049385;28;20116;-80
2022/10/02 11:48:50;;;;;;;1.38;0.55;;;21.80;99.90;;;;;;5051139;28;20065;-81
2022/10/02 11:51:19;;;;;;;1.73;0.73;;;21.80;99.90;;;;;;5050226;28;20037;-81
2022/10/02 11:54:14;;;;;;;0.40;0.20;;;22.00;99.90;;;;;;5051578;28;20041;-81
2022/10/02 11:57:18;;;;;;;2.50;0.57;;;21.90;99.90;;;;;;5023739;28;20037;-79
2022/10/02 12:00:06;;;;;;;3.47;0.40;;;22.10;99.90;;;;;;5041630;28;20103;-77
2022/10/02 12:02:52;;;;;;;0.88;0.32;;;21.80;99.90;;;;;;5050497;28;20412;-78
2022/10/02 12:05:53;;;;;;;2.20;0.52;;;21.90;99.90;;;;;;5064443;28;20174;-80
2022/10/02 12:09:06;;;;;;;8.75;2.60;;;22.20;99.90;;;;;;5050002;28;20044;-79
2022/10/02 12:11:42;;;;;;;5.10;3.20;;;22.60;99.90;;;;;;5016805;28;20079;-78
2022/10/02 12:14:43;;;;;;;1.73;0.73;;;22.60;99.90;;;;;;5051276;28;20489;-76
2022/10/02 12:17:23;;;;;;;0.63;0.50;;;22.50;99.90;;;;;;5049065;28;20048;-77
2022/10/02 12:26:58;;;;;;;0.73;0.38;;;22.80;99.90;;;;;;5029301;28;20483;-78
2022/10/02 12:29:39;;;;;;;0.95;0.32;;;22.50;99.90;;;;;;5063267;28;20560;-78
2022/10/02 12:32:25;;;;;;;1.40;0.30;;;22.70;99.90;;;;;;5047160;28;20124;-81
2022/10/02 12:35:16;;;;;;;2.28;0.40;;;22.50;99.90;;;;;;5053894;28;20451;-81
2022/10/02 12:38:01;;;;;;;1.80;1.05;;;22.20;99.90;;;;;;5050251;28;20095;-79
2022/10/02 12:40:45;;;;;;;9.55;4.68;;;22.10;99.90;;;;;;5069621;28;20045;-81
2022/10/02 12:43:37;;;;;;;8.02;0.30;;;21.90;99.90;;;;;;5053517;28;20044;-78
2022/10/02 12:46:16;;;;;;;3.92;0.50;;;22.40;99.90;;;;;;5070062;28;20136;-78
2022/10/02 12:49:03;;;;;;;1.23;1.13;;;22.20;99.90;;;;;;5052032;28;20040;-78
2022/10/02 12:51:38;;;;;;;0.22;0.22;;;22.00;99.90;;;;;;5056859;28;20041;-80
2022/10/02 12:54:46;;;;;;;1.02;0.30;;;21.70;99.90;;;;;;5052639;28;20053;-79
2022/10/02 12:57:57;;;;;;;0.10;0.10;;;21.50;99.90;;;;;;5027030;28;20122;-82
2022/10/02 13:00:47;;;;;;;0.20;0.10;;;21.60;99.90;;;;;;5046157;28;20080;-78
2022/10/02 13:03:54;;;;;;;0.52;0.13;;;21.80;99.90;;;;;;5053732;28;20060;-81
2022/10/02 13:06:31;;;;;;;4.88;0.40;;;22.00;99.90;;;;;;5046079;28;20425;-78
2022/10/02 13:09:05;;;;;;;1.27;0.52;;;22.00;99.90;;;;;;5052724;28;20240;-79
2022/10/02 13:11:56;;;;;;;2.88;0.90;;;21.80;99.90;;;;;;5051362;28;20043;-78
2022/10/02 13:14:28;;;;;;;1.85;1.10;;;21.90;99.90;;;;;;5050761;28;20155;-76
2022/10/02 13:17:24;;;;;;;1.02;0.35;;;21.90;99.90;;;;;;5050975;28;20041;-79
2022/10/02 13:20:30;;;;;;;2.47;0.77;;;22.00;99.90;;;;;;5032424;28;20045;-76
2022/10/02 13:23:21;;;;;;;1.95;0.70;;;21.80;99.10;;;;;;5044052;28;20507;-77
2022/10/02 13:26:20;;;;;;;1.67;0.82;;;21.70;99.90;;;;;;5053333;28;20069;-79
2022/10/02 13:29:10;;;;;;;1.42;0.43;;;21.90;99.90;;;;;;5054820;28;20037;-76
2022/10/02 13:32:09;;;;;;;0.20;0.20;;;21.50;99.60;;;;;;5054180;28;20064;-77
2022/10/02 13:34:37;;;;;;;3.30;0.30;;;21.60;99.90;;;;;;5050907;28;20045;-76
2022/10/02 13:37:14;;;;;;;0.45;0.30;;;21.80;99.90;;;;;;5051760;28;20123;-76
2022/10/02 13:39:45;;;;;;;0.47;0.30;;;21.90;99.90;;;;;;5067541;28;20102;-76
2022/10/02 13:42:41;;;;;;;0.30;0.20;;;21.70;99.90;;;;;;5062757;28;20044;-77
2022/10/02 13:45:18;;;;;;;0.90;0.60;;;21.60;99.90;;;;;;5050652;28;20492;-76
2022/10/02 13:48:12;;;;;;;0.68;0.40;;;21.40;99.90;;;;;;5050183;28;20040;-76
2022/10/02 13:50:40;;;;;;;0.20;0.10;;;21.50;99.90;;;;;;5050786;28;20052;-77
2022/10/02 13:53:29;;;;;;;1.42;0.40;;;21.40;99.90;;;;;;5052881;28;20052;-77
2022/10/02 13:56:17;;;;;;;0.30;0.20;;;21.50;99.90;;;;;;5051161;28;20037;-77
2022/10/02 13:59:10;;;;;;;0.13;0.13;;;21.50;99.90;;;;;;5050784;28;20408;-77
2022/10/02 14:02:07;;;;;;;0.30;0.20;;;21.40;99.90;;;;;;5067745;28;20064;-77
2022/10/02 14:04:42;;;;;;;0.43;0.25;;;21.50;99.90;;;;;;5051885;28;20040;-79
2022/10/02 14:07:29;;;;;;;0.10;0.10;;;21.20;99.90;;;;;;5052927;28;20409;-77
2022/10/02 14:10:00;;;;;;;0.60;0.35;;;21.20;99.90;;;;;;5053076;28;20037;-77
2022/10/02 14:12:46;;;;;;;0.63;0.22;;;21.60;99.90;;;;;;5052941;28;20496;-77
2022/10/02 14:15:29;;;;;;;0.35;0.30;;;21.60;99.90;;;;;;5055062;28;20057;-78
2022/10/02 14:18:27;;;;;;;0.40;0.32;;;21.70;99.90;;;;;;5053385;28;20506;-77